Time;durP1;ratioP1;P1;durP2;ratioP2;P2;SDS_P1;SDS_P2;PMS_P1;PMS_P2;Temp;Humidity;BMP_temperature;BMP_pressure;BME280_temperature;BME280_humidity;BME280_pressure;Samples;Min_cycle;Max_cycle;Signal;HPM_P1;HPM_P2
2021/12/23 00:00:59;;;;;;;;;;;-3.60;22.60;;;;;;5035013;28;19935;-64
2021/12/23 00:03:27;;;;;;;;;;;-3.70;22.60;;;;;;5051892;28;19928;-64
2021/12/23 00:05:55;;;;;;;;;;;-3.70;23.30;;;;;;5046564;28;19924;-65
2021/12/23 00:08:23;;;;;;;;;;;-3.70;23.20;;;;;;5034899;28;19929;-65
2021/12/23 00:10:50;;;;;;;;;;;-3.60;23.00;;;;;;5034580;28;19933;-64
2021/12/23 00:13:18;;;;;;;;;;;-3.70;22.80;;;;;;5035639;28;19960;-65
2021/12/23 00:16:03;;;;;;;;;;;-3.60;22.90;;;;;;5051496;28;20015;-67
2021/12/23 00:18:46;;;;;;;;;;;-3.70;22.50;;;;;;5038490;28;20451;-64
2021/12/23 00:24:01;;;;;;;;;;;-3.60;22.50;;;;;;5017598;28;20015;-65
2021/12/23 00:26:30;;;;;;;;;;;-3.70;22.10;;;;;;5036598;28;19926;-65
2021/12/23 00:28:58;;;;;;;;;;;-3.70;22.40;;;;;;5027384;28;19930;-65
2021/12/23 00:31:26;;;;;;;;;;;-3.70;22.30;;;;;;5031679;28;20032;-64
2021/12/23 00:33:56;;;;;;;;;;;-3.60;22.50;;;;;;5030656;28;19933;-64
2021/12/23 00:36:25;;;;;;;;;;;-3.60;22.60;;;;;;5029513;28;19968;-64
2021/12/23 00:38:55;;;;;;;;;;;-3.60;21.80;;;;;;5024305;28;19951;-65
2021/12/23 00:41:28;;;;;;;;;;;-3.50;21.80;;;;;;5029221;28;21062;-65
2021/12/23 00:43:56;;;;;;;;;;;-3.50;21.80;;;;;;5031815;28;19964;-65
2021/12/23 00:46:24;;;;;;;;;;;-3.60;21.50;;;;;;5056554;28;20055;-64
2021/12/23 00:48:52;;;;;;;;;;;-3.50;21.80;;;;;;5032595;28;19933;-65
2021/12/23 00:51:21;;;;;;;;;;;-3.50;21.50;;;;;;5045330;28;20019;-65
2021/12/23 00:53:52;;;;;;;;;;;-3.50;21.10;;;;;;5046194;28;19935;-65
2021/12/23 00:56:20;;;;;;;;;;;-3.50;21.30;;;;;;5043055;28;19964;-67
2021/12/23 00:58:48;;;;;;;;;;;-3.50;21.00;;;;;;5011194;28;20364;-66
2021/12/23 01:01:18;;;;;;;;;;;-3.50;21.00;;;;;;5038324;28;19935;-66
2021/12/23 01:03:46;;;;;;;;;;;-3.50;21.10;;;;;;5039991;28;19951;-66
2021/12/23 01:06:14;;;;;;;;;;;-3.50;21.30;;;;;;5030739;28;20278;-67
2021/12/23 01:08:43;;;;;;;;;;;-3.40;21.10;;;;;;5036628;28;19924;-66
2021/12/23 01:11:11;;;;;;;;;;;-3.50;21.30;;;;;;5052568;28;20011;-67
2021/12/23 01:13:46;;;;;;;;;;;-3.50;21.30;;;;;;5057064;28;20035;-66
2021/12/23 01:16:25;;;;;;;;;;;-3.60;21.30;;;;;;5033191;28;19925;-66
2021/12/23 01:18:55;;;;;;;;;;;-3.60;22.00;;;;;;4998456;28;19976;-66
2021/12/23 01:21:23;;;;;;;;;;;-3.50;22.20;;;;;;5035675;28;19924;-66
2021/12/23 01:23:53;;;;;;;;;;;-3.50;22.30;;;;;;5050249;28;20623;-67
2021/12/23 01:26:22;;;;;;;;;;;-3.50;22.00;;;;;;5058224;28;20434;-66
2021/12/23 01:28:52;;;;;;;;;;;-3.50;21.70;;;;;;5038467;28;19928;-66
2021/12/23 01:31:20;;;;;;;;;;;-3.40;21.50;;;;;;5037509;28;19940;-66
2021/12/23 01:33:48;;;;;;;;;;;-3.40;21.30;;;;;;5045658;28;20664;-66
2021/12/23 01:36:15;;;;;;;;;;;-3.50;21.30;;;;;;5048849;28;19930;-65
2021/12/23 01:38:43;;;;;;;;;;;-3.40;21.20;;;;;;5052448;28;20342;-67
2021/12/23 01:41:13;;;;;;;;;;;-3.40;21.10;;;;;;5060668;28;20298;-65
2021/12/23 01:43:41;;;;;;;;;;;-3.40;21.10;;;;;;5060680;28;19929;-66
2021/12/23 01:46:14;;;;;;;;;;;-3.40;20.60;;;;;;5055258;28;19953;-66
2021/12/23 01:48:42;;;;;;;;;;;-3.30;20.60;;;;;;5058447;28;19939;-66
2021/12/23 01:51:10;;;;;;;;;;;-3.30;19.70;;;;;;5063588;28;19934;-67
2021/12/23 01:53:38;;;;;;;;;;;-3.30;20.20;;;;;;5045078;28;19924;-66
2021/12/23 01:56:06;;;;;;;;;;;-3.30;19.50;;;;;;5063662;28;19924;-66
2021/12/23 01:58:37;;;;;;;;;;;-3.30;19.40;;;;;;5059028;28;19928;-66
2021/12/23 02:01:05;;;;;;;;;;;-3.30;19.30;;;;;;5062818;28;20007;-66
2021/12/23 02:03:35;;;;;;;;;;;-3.20;18.90;;;;;;5063320;28;19947;-66
2021/12/23 02:06:03;;;;;;;;;;;-3.20;18.90;;;;;;5045651;28;19924;-66
2021/12/23 02:08:32;;;;;;;;;;;-3.20;17.90;;;;;;5061223;28;20439;-66
2021/12/23 02:11:00;;;;;;;;;;;-3.20;17.90;;;;;;5063158;28;20014;-68
2021/12/23 02:13:28;;;;;;;;;;;-3.30;18.30;;;;;;5062433;28;20031;-66
2021/12/23 02:15:58;;;;;;;;;;;-3.20;18.60;;;;;;5062126;28;19958;-67
2021/12/23 02:18:26;;;;;;;;;;;-3.20;18.50;;;;;;5057782;28;20450;-66
2021/12/23 02:20:56;;;;;;;;;;;-3.20;17.90;;;;;;5060553;28;19932;-66
2021/12/23 02:23:24;;;;;;;;;;;-3.10;17.90;;;;;;5062745;28;19998;-66
2021/12/23 02:25:52;;;;;;;;;;;-3.10;17.90;;;;;;5062977;28;19932;-67
2021/12/23 02:28:22;;;;;;;;;;;-3.10;17.90;;;;;;5059517;28;20335;-66
2021/12/23 02:30:51;;;;;;;;;;;-3.20;17.60;;;;;;5061060;28;19925;-66
2021/12/23 02:33:20;;;;;;;;;;;-3.10;17.30;;;;;;5064646;28;19929;-66
2021/12/23 02:35:48;;;;;;;;;;;-3.10;16.80;;;;;;5059081;28;19924;-66
2021/12/23 02:38:17;;;;;;;;;;;-3.10;16.60;;;;;;5056535;28;19928;-66
2021/12/23 02:40:45;;;;;;;;;;;-3.10;16.30;;;;;;5063296;28;19925;-66
2021/12/23 02:43:14;;;;;;;;;;;-3.00;16.10;;;;;;5058507;28;20394;-66
2021/12/23 02:45:43;;;;;;;;;;;-3.10;15.70;;;;;;5062244;28;20015;-67
2021/12/23 02:48:12;;;;;;;;;;;-3.10;16.20;;;;;;5057557;28;19933;-66
2021/12/23 02:50:40;;;;;;;;;;;-3.10;15.70;;;;;;5063347;28;19931;-66
2021/12/23 02:53:08;;;;;;;;;;;-3.10;16.00;;;;;;5063525;28;19939;-67
2021/12/23 02:55:37;;;;;;;;;;;-3.00;15.50;;;;;;5064592;28;19947;-66
2021/12/23 02:58:06;;;;;;;;;;;-3.10;14.90;;;;;;5055829;28;20011;-66
2021/12/23 03:00:34;;;;;;;;;;;-3.10;15.00;;;;;;5061860;28;20289;-66
2021/12/23 03:03:02;;;;;;;;;;;-3.00;14.90;;;;;;5063409;28;19928;-65
2021/12/23 03:05:30;;;;;;;;;;;-3.10;13.80;;;;;;5056723;28;20660;-65
2021/12/23 03:07:59;;;;;;;;;;;-3.10;14.00;;;;;;5056905;28;19967;-67
2021/12/23 03:10:27;;;;;;;;;;;-3.00;13.50;;;;;;5060705;28;19929;-66
2021/12/23 03:12:57;;;;;;;;;;;-3.00;13.50;;;;;;5058378;28;19925;-66
2021/12/23 03:15:25;;;;;;;;;;;-3.00;13.10;;;;;;5063800;28;19933;-65
2021/12/23 03:17:53;;;;;;;;;;;-2.90;12.60;;;;;;5059182;28;19929;-65
2021/12/23 03:20:20;;;;;;;;;;;-2.90;12.30;;;;;;5064020;28;20015;-66
2021/12/23 03:22:48;;;;;;;;;;;-2.90;12.00;;;;;;5066335;28;20032;-66
2021/12/23 03:25:16;;;;;;;;;;;-3.00;12.10;;;;;;5061302;28;19924;-67
2021/12/23 03:27:44;;;;;;;;;;;-3.00;11.90;;;;;;5054826;28;19933;-66
2021/12/23 03:30:13;;;;;;;;;;;-2.90;11.70;;;;;;5046176;28;19935;-66
2021/12/23 03:32:41;;;;;;;;;;;-3.00;11.10;;;;;;5061973;28;19924;-66
2021/12/23 03:35:09;;;;;;;;;;;-3.00;11.10;;;;;;5046189;28;19938;-66
2021/12/23 03:37:37;;;;;;;;;;;-3.00;11.10;;;;;;5056342;28;20403;-66
2021/12/23 03:40:05;;;;;;;;;;;-3.00;11.50;;;;;;5062036;28;20424;-66
2021/12/23 03:42:34;;;;;;;;;;;-3.00;11.00;;;;;;5061940;28;20009;-67
2021/12/23 03:45:03;;;;;;;;;;;-3.00;11.10;;;;;;5062474;28;20015;-66
2021/12/23 03:47:32;;;;;;;;;;;-3.00;11.10;;;;;;5051837;28;19939;-66
2021/12/23 03:50:00;;;;;;;;;;;-2.90;10.70;;;;;;5061106;28;19972;-67
2021/12/23 03:52:28;;;;;;;;;;;-2.90;10.20;;;;;;5064339;28;20023;-66
2021/12/23 03:55:00;;;;;;;;;;;-2.90;9.70;;;;;;5060902;28;19928;-66
2021/12/23 03:57:27;;;;;;;;;;;-2.80;9.80;;;;;;5053282;28;19925;-66
2021/12/23 03:59:55;;;;;;;;;;;-2.90;9.80;;;;;;5060447;28;20384;-66
2021/12/23 04:02:23;;;;;;;;;;;-2.90;9.30;;;;;;5061791;28;19939;-66
2021/12/23 04:04:53;;;;;;;;;;;-2.80;9.10;;;;;;5063217;28;19936;-65
2021/12/23 04:07:20;;;;;;;;;;;-2.80;8.50;;;;;;5055900;28;20521;-65
2021/12/23 04:09:48;;;;;;;;;;;-2.80;8.60;;;;;;5054806;28;19924;-65
2021/12/23 04:12:16;;;;;;;;;;;-2.80;8.60;;;;;;5062834;28;20007;-66
2021/12/23 04:14:44;;;;;;;;;;;-2.80;8.50;;;;;;5064339;28;19971;-66
2021/12/23 04:17:11;;;;;;;;;;;-2.70;8.60;;;;;;5058607;28;19960;-67
2021/12/23 04:19:39;;;;;;;;;;;-2.70;8.10;;;;;;5060422;28;19935;-66
2021/12/23 04:22:08;;;;;;;;;;;-2.80;7.80;;;;;;5059618;28;19943;-66
2021/12/23 04:24:36;;;;;;;;;;;-2.80;8.10;;;;;;5062894;28;19924;-66
2021/12/23 04:27:04;;;;;;;;;;;-2.80;8.10;;;;;;5059545;28;20399;-66
2021/12/23 04:29:32;;;;;;;;;;;-2.70;7.90;;;;;;5058503;28;20015;-66
2021/12/23 04:32:01;;;;;;;;;;;-2.70;7.70;;;;;;5059857;28;19939;-66
2021/12/23 04:34:29;;;;;;;;;;;-2.70;7.50;;;;;;5061727;28;19924;-66
2021/12/23 04:36:56;;;;;;;;;;;-2.70;7.40;;;;;;5029160;28;19925;-66
2021/12/23 04:39:26;;;;;;;;;;;-2.60;7.60;;;;;;5054680;28;20439;-66
2021/12/23 04:41:53;;;;;;;;;;;-2.70;7.10;;;;;;5056449;28;20051;-66
2021/12/23 04:44:21;;;;;;;;;;;-2.60;7.30;;;;;;5057862;28;19936;-66
2021/12/23 04:46:49;;;;;;;;;;;-2.70;7.10;;;;;;5057932;28;19938;-67
2021/12/23 04:49:21;;;;;;;;;;;-2.70;7.20;;;;;;5049917;28;20204;-66
2021/12/23 04:51:49;;;;;;;;;;;-2.70;7.30;;;;;;5048975;28;21594;-66
2021/12/23 04:54:17;;;;;;;;;;;-2.70;7.30;;;;;;5044298;28;20019;-65
2021/12/23 04:56:47;;;;;;;;;;;-2.70;7.20;;;;;;5042078;28;20514;-66
2021/12/23 04:59:15;;;;;;;;;;;-2.60;7.50;;;;;;5033093;28;20303;-66
2021/12/23 05:01:42;;;;;;;;;;;-2.70;7.50;;;;;;5062218;28;19963;-65
2021/12/23 05:04:10;;;;;;;;;;;-2.70;7.60;;;;;;5058663;28;20027;-65
2021/12/23 05:06:40;;;;;;;;;;;-2.70;7.00;;;;;;5031821;28;19928;-65
2021/12/23 05:09:08;;;;;;;;;;;-2.60;6.30;;;;;;5050939;28;20303;-67
2021/12/23 05:11:37;;;;;;;;;;;-2.70;6.00;;;;;;5060899;28;19924;-66
2021/12/23 05:14:06;;;;;;;;;;;-2.70;6.50;;;;;;5061845;28;20015;-66
2021/12/23 05:16:37;;;;;;;;;;;-2.70;6.80;;;;;;5057657;28;20413;-66
2021/12/23 05:19:05;;;;;;;;;;;-2.70;6.60;;;;;;5051720;28;20008;-67
2021/12/23 05:21:34;;;;;;;;;;;-2.80;6.60;;;;;;5059854;28;20358;-67
2021/12/23 05:24:02;;;;;;;;;;;-2.80;6.90;;;;;;5056469;28;20554;-67
2021/12/23 05:26:29;;;;;;;;;;;-2.80;7.20;;;;;;5056974;28;19935;-67
2021/12/23 05:28:57;;;;;;;;;;;-2.70;7.00;;;;;;5050531;28;19943;-66
2021/12/23 05:31:26;;;;;;;;;;;-2.70;6.90;;;;;;5057854;28;20153;-65
2021/12/23 05:33:54;;;;;;;;;;;-2.80;6.60;;;;;;5059163;28;19968;-65
2021/12/23 05:36:22;;;;;;;;;;;-2.80;7.00;;;;;;5058935;28;19936;-66
2021/12/23 05:38:50;;;;;;;;;;;-2.80;7.10;;;;;;5055169;28;20043;-66
2021/12/23 05:41:18;;;;;;;;;;;-2.80;7.30;;;;;;5056693;28;19924;-65
2021/12/23 05:43:46;;;;;;;;;;;-2.80;7.00;;;;;;5047131;28;19925;-66
2021/12/23 05:46:14;;;;;;;;;;;-2.70;6.80;;;;;;5040958;28;19991;-66
2021/12/23 05:48:43;;;;;;;;;;;-2.80;7.20;;;;;;5040115;28;19952;-66
2021/12/23 05:51:11;;;;;;;;;;;-2.80;6.80;;;;;;5041711;28;20351;-66
2021/12/23 05:53:39;;;;;;;;;;;-2.80;7.10;;;;;;5045070;28;19940;-65
2021/12/23 05:56:07;;;;;;;;;;;-2.80;7.60;;;;;;5044992;28;19928;-66
2021/12/23 05:58:35;;;;;;;;;;;-2.80;7.30;;;;;;5051463;28;19925;-65
2021/12/23 06:01:04;;;;;;;;;;;-2.80;7.60;;;;;;5058225;28;19983;-66
2021/12/23 06:03:32;;;;;;;;;;;-2.80;7.60;;;;;;5043617;28;19929;-66
2021/12/23 06:06:01;;;;;;;;;;;-2.90;8.10;;;;;;5060793;28;19924;-66
2021/12/23 06:08:29;;;;;;;;;;;-2.90;8.30;;;;;;5054290;28;19963;-66
2021/12/23 06:10:57;;;;;;;;;;;-2.90;7.80;;;;;;5056479;28;20277;-66
2021/12/23 06:13:25;;;;;;;;;;;-2.90;7.90;;;;;;5057615;28;19931;-66
2021/12/23 06:15:53;;;;;;;;;;;-2.90;7.90;;;;;;5059087;28;19928;-67
2021/12/23 06:18:21;;;;;;;;;;;-2.90;7.80;;;;;;5054308;28;19928;-67
2021/12/23 06:20:49;;;;;;;;;;;-2.90;8.10;;;;;;5062136;28;19924;-64
2021/12/23 06:23:18;;;;;;;;;;;-2.90;8.00;;;;;;5061783;28;20030;-65
2021/12/23 06:25:46;;;;;;;;;;;-3.00;7.50;;;;;;5058740;28;19924;-66
2021/12/23 06:28:13;;;;;;;;;;;-3.00;7.50;;;;;;5045902;28;19925;-65
2021/12/23 06:30:41;;;;;;;;;;;-3.00;7.50;;;;;;5043106;28;20012;-65
2021/12/23 06:33:11;;;;;;;;;;;-2.90;7.60;;;;;;5040601;28;20416;-65
2021/12/23 06:35:39;;;;;;;;;;;-2.90;7.60;;;;;;5064224;28;19924;-66
2021/12/23 06:38:08;;;;;;;;;;;-2.80;7.20;;;;;;5058159;28;20011;-66
2021/12/23 06:40:37;;;;;;;;;;;-2.80;7.00;;;;;;5062551;28;19939;-65
2021/12/23 06:43:05;;;;;;;;;;;-2.80;6.90;;;;;;5057144;28;19929;-65
2021/12/23 06:45:33;;;;;;;;;;;-2.90;6.40;;;;;;5061661;28;20007;-65
2021/12/23 06:48:01;;;;;;;;;;;-2.80;6.50;;;;;;5054199;28;19974;-65
2021/12/23 06:50:29;;;;;;;;;;;-2.90;6.90;;;;;;5046980;28;19925;-66
2021/12/23 06:52:58;;;;;;;;;;;-2.90;6.80;;;;;;5039185;28;20105;-66
2021/12/23 06:55:26;;;;;;;;;;;-2.90;7.00;;;;;;5044476;28;19933;-66
2021/12/23 06:57:56;;;;;;;;;;;-3.00;6.80;;;;;;5037585;28;21388;-66
2021/12/23 07:00:26;;;;;;;;;;;-2.90;7.10;;;;;;5044543;28;20019;-67
2021/12/23 07:02:54;;;;;;;;;;;-2.90;6.90;;;;;;5042474;28;20064;-65
2021/12/23 07:05:22;;;;;;;;;;;-2.80;7.20;;;;;;5045862;28;19947;-65
2021/12/23 07:07:56;;;;;;;;;;;-2.80;6.60;;;;;;5037996;28;19951;-65
2021/12/23 07:10:25;;;;;;;;;;;-2.80;6.60;;;;;;5055528;28;19932;-65
2021/12/23 07:12:56;;;;;;;;;;;-2.70;6.30;;;;;;5061633;28;19925;-66
2021/12/23 07:15:25;;;;;;;;;;;-2.80;6.70;;;;;;5059072;28;20380;-65
2021/12/23 07:17:54;;;;;;;;;;;-2.80;6.60;;;;;;5035661;28;20020;-67
2021/12/23 07:20:23;;;;;;;;;;;-2.80;6.20;;;;;;5041105;28;19925;-66
2021/12/23 07:22:53;;;;;;;;;;;-2.70;6.30;;;;;;5060922;28;19931;-66
2021/12/23 07:25:21;;;;;;;;;;;-2.60;5.60;;;;;;5048003;28;19935;-66
2021/12/23 07:27:50;;;;;;;;;;;-2.60;5.80;;;;;;5049532;28;19929;-67
2021/12/23 07:30:20;;;;;;;;;;;-2.50;5.60;;;;;;5043349;28;19932;-66
2021/12/23 07:32:49;;;;;;;;;;;-2.60;5.00;;;;;;5058763;28;19925;-66
2021/12/23 07:35:18;;;;;;;;;;;-2.60;5.40;;;;;;5063123;28;20375;-66
2021/12/23 07:37:46;;;;;;;;;;;-2.70;5.30;;;;;;5057351;28;19978;-67
2021/12/23 07:40:16;;;;;;;;;;;-2.60;5.60;;;;;;5060293;28;21840;-67
2021/12/23 07:42:53;;;;;;;;;;;-2.60;5.60;;;;;;5059892;28;19936;-66
2021/12/23 07:45:23;;;;;;;;;;;-2.60;5.60;;;;;;5056995;28;19967;-67
2021/12/23 07:47:51;;;;;;;;;;;-2.60;5.60;;;;;;5040456;28;20035;-67
2021/12/23 07:50:19;;;;;;;;;;;-2.60;5.40;;;;;;5044461;28;19925;-65
2021/12/23 07:52:47;;;;;;;;;;;-2.50;5.50;;;;;;5047032;28;20004;-66
2021/12/23 07:55:15;;;;;;;;;;;-2.50;5.60;;;;;;5044429;28;19932;-65
2021/12/23 07:57:43;;;;;;;;;;;-2.40;5.50;;;;;;5039538;28;20565;-65
2021/12/23 08:00:12;;;;;;;;;;;-2.40;5.70;;;;;;5028853;28;19933;-66
2021/12/23 08:02:42;;;;;;;;;;;-2.40;5.70;;;;;;5046685;28;19931;-65
2021/12/23 08:05:10;;;;;;;;;;;-2.30;5.50;;;;;;5029976;28;19932;-66
2021/12/23 08:07:38;;;;;;;;;;;-2.30;4.90;;;;;;5039900;28;19932;-66
2021/12/23 08:10:07;;;;;;;;;;;-2.20;4.40;;;;;;5051495;28;19924;-66
2021/12/23 08:12:34;;;;;;;;;;;-2.20;4.40;;;;;;5056361;28;20356;-66
2021/12/23 08:15:03;;;;;;;;;;;-2.20;4.40;;;;;;5044274;28;20480;-66
2021/12/23 08:17:36;;;;;;;;;;;-2.10;4.40;;;;;;5032362;28;19940;-66
2021/12/23 08:20:11;;;;;;;;;;;-2.00;4.50;;;;;;5040845;28;20767;-66
2021/12/23 08:22:39;;;;;;;;;;;-1.90;4.50;;;;;;5057824;28;19925;-65
2021/12/23 08:25:08;;;;;;;;;;;-1.90;4.10;;;;;;5051993;28;19995;-65
2021/12/23 08:27:36;;;;;;;;;;;-1.90;3.80;;;;;;5036590;28;19936;-65
2021/12/23 08:30:05;;;;;;;;;;;-1.80;3.50;;;;;;5037602;28;20411;-66
2021/12/23 08:32:33;;;;;;;;;;;-1.90;3.80;;;;;;5045296;28;19962;-66
2021/12/23 08:35:01;;;;;;;;;;;-1.80;3.70;;;;;;5040049;28;20036;-66
2021/12/23 08:37:30;;;;;;;;;;;-1.70;3.80;;;;;;5049652;28;20019;-66
2021/12/23 08:39:57;;;;;;;;;;;-1.70;3.50;;;;;;5050877;28;19964;-66
2021/12/23 08:42:25;;;;;;;;;;;-1.70;3.50;;;;;;5034762;28;19999;-66
2021/12/23 08:44:53;;;;;;;;;;;-1.70;3.60;;;;;;5035601;28;19932;-65
2021/12/23 08:47:21;;;;;;;;;;;-1.60;3.20;;;;;;5064952;28;19924;-66
2021/12/23 08:49:49;;;;;;;;;;;-1.60;3.30;;;;;;5047979;28;19931;-66
2021/12/23 08:52:17;;;;;;;;;;;-1.50;4.00;;;;;;5042379;28;19925;-66
2021/12/23 08:54:46;;;;;;;;;;;-1.50;3.40;;;;;;5030584;28;20024;-67
2021/12/23 08:57:14;;;;;;;;;;;-1.40;3.50;;;;;;5042548;28;20327;-65
2021/12/23 08:59:42;;;;;;;;;;;-1.30;3.60;;;;;;5051510;28;20032;-66
2021/12/23 09:02:10;;;;;;;;;;;-1.30;3.20;;;;;;5001791;28;20388;-66
2021/12/23 09:04:38;;;;;;;;;;;-1.20;3.30;;;;;;5036266;28;19929;-66
2021/12/23 09:07:07;;;;;;;;;;;-1.00;3.20;;;;;;5042200;28;19929;-66
2021/12/23 09:09:36;;;;;;;;;;;-1.00;2.50;;;;;;5044003;28;21627;-67
2021/12/23 09:12:06;;;;;;;;;;;-0.90;2.00;;;;;;5038660;28;19925;-66
2021/12/23 09:14:34;;;;;;;;;;;-0.90;2.20;;;;;;5041972;28;19925;-66
2021/12/23 09:17:03;;;;;;;;;;;-0.80;1.80;;;;;;5038442;28;20024;-67
2021/12/23 09:19:31;;;;;;;;;;;-0.70;1.70;;;;;;5042621;28;19983;-66
2021/12/23 09:21:59;;;;;;;;;;;-0.60;1.60;;;;;;5047438;28;20430;-67
2021/12/23 09:24:27;;;;;;;;;;;-0.60;1.70;;;;;;5044779;28;20012;-67
2021/12/23 09:27:01;;;;;;;;;;;-0.50;1.00;;;;;;5043842;28;19925;-67
2021/12/23 09:35:02;;;;;;;;;;;-0.40;1.00;;;;;;5058415;28;19924;-66
2021/12/23 09:37:50;;;;;;;;;;;-0.40;1.00;;;;;;5062057;28;20386;-67
2021/12/23 09:40:18;;;;;;;;;;;-0.40;1.00;;;;;;5061533;28;20367;-66
2021/12/23 09:42:48;;;;;;;;;;;-0.30;1.00;;;;;;5059439;28;20293;-67
2021/12/23 09:45:18;;;;;;;;;;;-0.30;1.00;;;;;;5064271;28;20186;-67
2021/12/23 09:47:47;;;;;;;;;;;-0.30;1.00;;;;;;5056756;28;19933;-67
2021/12/23 09:50:22;;;;;;;;;;;-0.20;1.00;;;;;;5035862;28;19987;-68
2021/12/23 09:52:51;;;;;;;;;;;-0.10;1.00;;;;;;5047825;28;19951;-68
2021/12/23 09:55:20;;;;;;;;;;;0.00;1.00;;;;;;5062458;28;19932;-68
2021/12/23 09:57:48;;;;;;;;;;;0.10;1.00;;;;;;5060426;28;20126;-66
2021/12/23 10:00:19;;;;;;;;;;;0.10;1.00;;;;;;5048155;28;20058;-68
2021/12/23 10:02:51;;;;;;;;;;;0.20;1.00;;;;;;5060535;28;19929;-67
2021/12/23 10:05:20;;;;;;;;;;;0.30;1.00;;;;;;5059768;28;20266;-69
2021/12/23 10:07:49;;;;;;;;;;;0.30;1.00;;;;;;5045332;28;19934;-69
2021/12/23 10:10:21;;;;;;;;;;;0.40;1.00;;;;;;5056410;28;20016;-68
2021/12/23 10:27:32;;;;;;;;;;;0.90;1.00;;;;;;5012503;28;19996;-69
2021/12/23 10:38:29;;;;;;;;;;;1.10;1.00;;;;;;5045698;28;20094;-70
2021/12/23 10:40:58;;;;;;;;;;;1.20;1.00;;;;;;5050218;28;19977;-69
2021/12/23 10:43:27;;;;;;;;;;;1.30;1.00;;;;;;5039710;28;19979;-69
2021/12/23 10:45:57;;;;;;;;;;;1.20;1.00;;;;;;5059129;28;20015;-69
2021/12/23 10:48:29;;;;;;;;;;;1.20;1.00;;;;;;5063934;28;20426;-71
2021/12/23 10:51:01;;;;;;;;;;;1.30;1.00;;;;;;5047334;28;19990;-70
2021/12/23 10:53:49;;;;;;;;;;;1.30;1.00;;;;;;5049327;28;20405;-70
2021/12/23 10:59:09;;;;;;;;;;;1.40;1.00;;;;;;5047747;28;19968;-71
2021/12/23 11:01:55;;;;;;;;;;;1.50;1.00;;;;;;5045914;28;19925;-70
2021/12/23 11:04:25;;;;;;;;;;;1.50;1.00;;;;;;5047961;28;19925;-70
2021/12/23 11:07:10;;;;;;;;;;;1.60;1.00;;;;;;5050967;28;19925;-70
2021/12/23 11:09:54;;;;;;;;;;;1.70;1.00;;;;;;5049031;28;19975;-69
2021/12/23 11:35:44;;;;;;;;;;;2.20;1.00;;;;;;5063695;28;19929;-69
2021/12/23 11:38:18;;;;;;;;;;;2.10;1.00;;;;;;5047138;28;19988;-69
2021/12/23 11:40:54;;;;;;;;;;;2.20;1.00;;;;;;5042417;28;20023;-70
2021/12/23 11:43:46;;;;;;;;;;;2.20;1.00;;;;;;5043775;28;19987;-72
2021/12/23 11:46:15;;;;;;;;;;;2.30;1.00;;;;;;5046742;28;19933;-69
2021/12/23 11:48:47;;;;;;;;;;;2.30;1.00;;;;;;5046048;28;19929;-70
2021/12/23 11:51:20;;;;;;;;;;;2.50;1.00;;;;;;5052835;28;20343;-68
2021/12/23 11:53:49;;;;;;;;;;;2.60;1.00;;;;;;5042312;28;20415;-70
2021/12/23 11:56:19;;;;;;;;;;;2.60;1.00;;;;;;5066871;28;20023;-70
2021/12/23 11:58:48;;;;;;;;;;;2.70;1.00;;;;;;5061307;28;19967;-69
2021/12/23 12:01:18;;;;;;;;;;;2.70;1.00;;;;;;5030104;28;19924;-69
2021/12/23 12:03:55;;;;;;;;;;;2.80;1.00;;;;;;5046206;28;19955;-69
2021/12/23 12:06:24;;;;;;;;;;;2.90;1.00;;;;;;5055194;28;19964;-70
2021/12/23 12:08:55;;;;;;;;;;;3.00;1.00;;;;;;5065118;28;20439;-70
2021/12/23 12:11:24;;;;;;;;;;;3.00;1.00;;;;;;5062379;28;20291;-70
2021/12/23 12:13:55;;;;;;;;;;;2.90;1.00;;;;;;5051732;28;19929;-70
2021/12/23 12:16:31;;;;;;;;;;;2.90;1.00;;;;;;5069028;28;19932;-69
2021/12/23 12:18:59;;;;;;;;;;;3.10;1.00;;;;;;5047792;28;20042;-70
2021/12/23 12:21:31;;;;;;;;;;;3.20;1.00;;;;;;5027933;28;19932;-70
2021/12/23 12:24:17;;;;;;;;;;;3.30;1.00;;;;;;5043892;28;19937;-70
2021/12/23 12:26:51;;;;;;;;;;;3.40;1.00;;;;;;5047077;28;20301;-70
2021/12/23 12:29:20;;;;;;;;;;;3.50;1.00;;;;;;5064916;28;19924;-69
2021/12/23 12:31:48;;;;;;;;;;;3.40;1.00;;;;;;5065784;28;19931;-70
2021/12/23 12:34:19;;;;;;;;;;;3.40;1.00;;;;;;5065218;28;19955;-69
2021/12/23 12:36:49;;;;;;;;;;;3.40;1.00;;;;;;5067734;28;20338;-70
2021/12/23 12:39:21;;;;;;;;;;;3.40;1.00;;;;;;5066407;28;19960;-70
2021/12/23 12:41:49;;;;;;;;;;;3.50;1.00;;;;;;5060043;28;19924;-69
2021/12/23 12:44:23;;;;;;;;;;;3.40;1.00;;;;;;5043570;28;20356;-71
2021/12/23 12:46:58;;;;;;;;;;;3.40;1.00;;;;;;5063999;28;19978;-69
2021/12/23 12:49:28;;;;;;;;;;;3.40;1.00;;;;;;5059732;28;19928;-69
2021/12/23 12:52:06;;;;;;;;;;;3.50;1.00;;;;;;5063653;28;19967;-70
2021/12/23 12:54:40;;;;;;;;;;;3.50;1.00;;;;;;5065599;28;20418;-70
2021/12/23 12:57:09;;;;;;;;;;;3.50;1.00;;;;;;5064235;28;20050;-70
2021/12/23 12:59:39;;;;;;;;;;;3.50;1.00;;;;;;5061505;28;19924;-70
2021/12/23 13:02:22;;;;;;;;;;;3.50;1.00;;;;;;5062800;28;20333;-73
2021/12/23 13:04:52;;;;;;;;;;;3.50;1.00;;;;;;5057534;28;19932;-71
2021/12/23 13:07:24;;;;;;;;;;;3.50;1.00;;;;;;5045611;28;20436;-70
2021/12/23 13:10:00;;;;;;;;;;;3.60;1.00;;;;;;5061232;28;19970;-70
2021/12/23 13:12:32;;;;;;;;;;;3.60;1.00;;;;;;5064033;28;19978;-71
2021/12/23 13:15:17;;;;;;;;;;;3.60;1.00;;;;;;5039258;28;19935;-71
2021/12/23 13:17:47;;;;;;;;;;;3.70;1.00;;;;;;5039838;28;20308;-70
2021/12/23 13:20:16;;;;;;;;;;;3.80;1.00;;;;;;5016135;28;19932;-70
2021/12/23 13:22:45;;;;;;;;;;;3.80;1.00;;;;;;5066120;28;20023;-71
2021/12/23 13:25:15;;;;;;;;;;;3.90;1.00;;;;;;5047477;28;20367;-70
2021/12/23 13:27:43;;;;;;;;;;;3.90;1.00;;;;;;5043606;28;20023;-71
2021/12/23 13:30:12;;;;;;;;;;;3.80;1.00;;;;;;5052795;28;19971;-69
2021/12/23 13:32:40;;;;;;;;;;;3.90;1.00;;;;;;5038822;28;19951;-70
2021/12/23 13:35:12;;;;;;;;;;;3.90;1.00;;;;;;5041731;28;20055;-70
2021/12/23 13:37:45;;;;;;;;;;;4.00;1.00;;;;;;5031372;28;20020;-70
2021/12/23 13:40:25;;;;;;;;;;;4.00;1.00;;;;;;5038101;28;19928;-70
2021/12/23 13:42:53;;;;;;;;;;;4.00;1.00;;;;;;5058925;28;20366;-70
2021/12/23 13:45:22;;;;;;;;;;;4.10;1.00;;;;;;5054720;28;19935;-70
2021/12/23 13:47:52;;;;;;;;;;;4.10;1.00;;;;;;5064140;28;20391;-70
2021/12/23 13:50:21;;;;;;;;;;;4.10;1.00;;;;;;5063827;28;19971;-70
2021/12/23 13:52:50;;;;;;;;;;;4.10;1.00;;;;;;5029307;28;19932;-70
2021/12/23 13:55:20;;;;;;;;;;;4.20;1.00;;;;;;5063177;28;19925;-70
2021/12/23 13:57:51;;;;;;;;;;;4.20;1.00;;;;;;5049343;28;20103;-72
2021/12/23 14:00:20;;;;;;;;;;;4.20;1.00;;;;;;5062857;28;19957;-69
2021/12/23 14:02:51;;;;;;;;;;;4.20;1.00;;;;;;5057249;28;19979;-70
2021/12/23 14:05:19;;;;;;;;;;;4.20;1.00;;;;;;5014835;28;19932;-70
2021/12/23 14:07:50;;;;;;;;;;;4.20;1.00;;;;;;5029130;28;19975;-70
2021/12/23 14:10:22;;;;;;;;;;;4.20;1.00;;;;;;5050413;28;19924;-71
2021/12/23 14:12:52;;;;;;;;;;;4.10;1.00;;;;;;5067433;28;19933;-70
2021/12/23 14:15:22;;;;;;;;;;;4.10;1.00;;;;;;5068701;28;19970;-70
2021/12/23 14:17:58;;;;;;;;;;;4.00;1.00;;;;;;5039427;28;19961;-69
2021/12/23 14:23:14;;;;;;;;;;;4.00;1.00;;;;;;5046735;28;19925;-70
2021/12/23 14:25:46;;;;;;;;;;;4.00;1.00;;;;;;5048599;28;20035;-70
2021/12/23 14:28:15;;;;;;;;;;;4.10;1.00;;;;;;5051396;28;19925;-70
2021/12/23 14:30:46;;;;;;;;;;;4.00;1.00;;;;;;5058766;28;20023;-70
2021/12/23 14:33:15;;;;;;;;;;;4.10;1.00;;;;;;5068842;28;19928;-69
2021/12/23 14:35:51;;;;;;;;;;;4.10;1.00;;;;;;5064175;28;19956;-69
2021/12/23 14:38:24;;;;;;;;;;;4.10;1.00;;;;;;5061461;28;19939;-70
2021/12/23 14:40:59;;;;;;;;;;;4.10;1.00;;;;;;5039327;28;19936;-70
2021/12/23 14:43:27;;;;;;;;;;;3.90;1.00;;;;;;5065212;28;20406;-71
2021/12/23 14:45:57;;;;;;;;;;;3.90;1.00;;;;;;5067518;28;19955;-71
2021/12/23 14:48:32;;;;;;;;;;;3.80;1.60;;;;;;5062873;28;19957;-71
2021/12/23 14:51:02;;;;;;;;;;;3.80;2.10;;;;;;5061868;28;20352;-69
2021/12/23 14:53:30;;;;;;;;;;;3.80;2.50;;;;;;5056591;28;19925;-70
2021/12/23 14:55:59;;;;;;;;;;;3.80;2.70;;;;;;5049034;28;19959;-70
2021/12/23 14:58:28;;;;;;;;;;;3.70;3.30;;;;;;5031760;28;19925;-70
2021/12/23 15:00:55;;;;;;;;;;;3.70;3.70;;;;;;5046798;28;20384;-69
2021/12/23 15:03:26;;;;;;;;;;;3.70;4.20;;;;;;5041017;28;19925;-70
2021/12/23 15:05:57;;;;;;;;;;;3.70;4.50;;;;;;5042972;28;19933;-70
2021/12/23 15:08:27;;;;;;;;;;;3.70;4.50;;;;;;5046650;28;19982;-70
2021/12/23 15:10:58;;;;;;;;;;;3.70;4.60;;;;;;5066719;28;19932;-71
2021/12/23 15:13:32;;;;;;;;;;;3.70;4.70;;;;;;5063062;28;19958;-70
2021/12/23 15:16:03;;;;;;;;;;;3.80;4.20;;;;;;5065304;28;19928;-71
2021/12/23 15:18:40;;;;;;;;;;;3.80;4.60;;;;;;5063297;28;19928;-70
2021/12/23 15:21:12;;;;;;;;;;;3.80;4.80;;;;;;5069192;28;19976;-70
2021/12/23 15:23:44;;;;;;;;;;;3.80;5.10;;;;;;5061522;28;19932;-70
2021/12/23 15:26:20;;;;;;;;;;;3.80;5.40;;;;;;5064700;28;19924;-71
2021/12/23 15:29:06;;;;;;;;;;;3.80;5.50;;;;;;5049587;28;19924;-70
2021/12/23 15:31:35;;;;;;;;;;;3.70;5.90;;;;;;5065865;28;19925;-70
2021/12/23 15:34:07;;;;;;;;;;;3.80;6.20;;;;;;5062454;28;19952;-71
2021/12/23 15:36:35;;;;;;;;;;;3.80;6.20;;;;;;5068594;28;19929;-70
2021/12/23 15:39:13;;;;;;;;;;;3.70;6.10;;;;;;5061973;28;19932;-70
2021/12/23 15:41:41;;;;;;;;;;;3.80;5.50;;;;;;5065436;28;20372;-70
2021/12/23 15:44:11;;;;;;;;;;;3.80;5.50;;;;;;5064793;28;19932;-70
2021/12/23 15:46:39;;;;;;;;;;;3.80;5.60;;;;;;5031147;28;20019;-71